createdAt,value
2023-05-14T00:01:33.078Z,101782.81
2023-05-14T00:04:00.297Z,101794.59
2023-05-14T00:06:27.481Z,101795.91
2023-05-14T00:08:54.555Z,101715.50
2023-05-14T00:11:21.823Z,101806.72
2023-05-14T00:13:50.429Z,101746.00
2023-05-14T00:16:17.668Z,101787.31
2023-05-14T00:18:44.817Z,101805.56
2023-05-14T00:21:12.136Z,101808.00
2023-05-14T00:23:40.442Z,101767.75
2023-05-14T00:26:07.614Z,101762.66
2023-05-14T00:28:34.859Z,101810.84
2023-05-14T00:31:02.049Z,101813.06
2023-05-14T00:33:29.072Z,101814.34
2023-05-14T00:35:56.215Z,101818.94
2023-05-14T00:38:24.421Z,101791.63
2023-05-14T00:40:52.153Z,101805.47
2023-05-14T00:43:20.806Z,101805.47
2023-05-14T00:45:51.129Z,101782.69
2023-05-14T00:48:18.867Z,101793.66
2023-05-14T00:50:47.969Z,101809.06
2023-05-14T00:53:15.230Z,101799.06
2023-05-14T00:55:43.076Z,101762.44
2023-05-14T00:58:12.128Z,101682.31
2023-05-14T01:00:40.760Z,101776.31
2023-05-14T01:03:09.148Z,101801.31
2023-05-14T01:05:47.682Z,101807.00
2023-05-14T01:08:46.780Z,101795.72
2023-05-14T01:11:25.886Z,101788.28
2023-05-14T01:14:14.222Z,101787.31
2023-05-14T01:16:42.912Z,101768.38
2023-05-14T01:19:21.775Z,101745.66
2023-05-14T01:21:48.859Z,101793.66
2023-05-14T01:24:15.863Z,101781.88
2023-05-14T01:26:42.923Z,101761.34
2023-05-14T01:29:19.061Z,101782.38
2023-05-14T01:31:47.812Z,101783.16
2023-05-14T01:34:18.174Z,101712.41
2023-05-14T01:36:45.836Z,101777.09
2023-05-14T01:39:15.346Z,101737.66
2023-05-14T01:41:43.082Z,101731.59
2023-05-14T01:44:11.234Z,101767.84
2023-05-14T01:46:38.755Z,101763.34
2023-05-14T01:49:05.990Z,101769.91
2023-05-14T01:51:33.072Z,101771.34
2023-05-14T01:54:00.150Z,101754.78
2023-05-14T01:56:27.326Z,101753.81
2023-05-14T01:58:55.758Z,101777.38
2023-05-14T02:01:23.293Z,101766.91
2023-05-14T02:03:50.525Z,101747.03
2023-05-14T02:06:17.662Z,101707.72
2023-05-14T02:08:44.643Z,101746.53
2023-05-14T02:11:11.861Z,101761.53
2023-05-14T02:13:39.343Z,101698.81
2023-05-14T02:16:06.660Z,101766.59
2023-05-14T02:18:34.567Z,101743.38
2023-05-14T02:21:01.777Z,101744.31
2023-05-14T02:23:40.481Z,101766.59
2023-05-14T02:26:12.831Z,101768.00
2023-05-14T02:28:39.961Z,101759.56
2023-05-14T02:31:07.061Z,101765.94
2023-05-14T02:33:34.221Z,101771.00
2023-05-14T02:36:01.291Z,101728.41
2023-05-14T02:38:28.466Z,101762.13
2023-05-14T02:40:56.970Z,101705.75
2023-05-14T02:43:24.065Z,101652.03
2023-05-14T02:45:52.412Z,101753.19
2023-05-14T02:48:19.485Z,101738.19
2023-05-14T02:50:47.115Z,101727.47
2023-05-14T02:53:14.237Z,101761.47
2023-05-14T02:55:41.552Z,101739.06
2023-05-14T02:58:08.626Z,101766.41
2023-05-14T03:00:35.955Z,101771.13
2023-05-14T03:03:03.473Z,101786.13
2023-05-14T03:05:31.191Z,101782.63
2023-05-14T03:07:58.677Z,101750.66
2023-05-14T03:10:26.144Z,101742.25
2023-05-14T03:12:53.610Z,101767.09
2023-05-14T03:15:20.611Z,101780.03
2023-05-14T03:17:47.692Z,101760.03
2023-05-14T03:20:14.910Z,101722.31
2023-05-14T03:22:42.269Z,101707.50
2023-05-14T03:25:12.082Z,101745.25
2023-05-14T03:27:39.763Z,101767.34
2023-05-14T03:30:07.526Z,101666.53
2023-05-14T03:32:34.790Z,101749.06
2023-05-14T03:35:01.894Z,101758.75
2023-05-14T03:37:28.950Z,101770.53
2023-05-14T03:39:56.739Z,101766.41
2023-05-14T03:42:23.780Z,101792.47
2023-05-14T03:44:50.840Z,101787.09
2023-05-14T03:47:17.896Z,101787.69
2023-05-14T03:49:45.068Z,101789.94
2023-05-14T03:52:13.811Z,101768.94
2023-05-14T03:54:43.791Z,101773.13
2023-05-14T03:57:11.170Z,101744.47
2023-05-14T03:59:38.206Z,101742.88
2023-05-14T04:02:05.217Z,101655.06
2023-05-14T04:04:32.363Z,101776.91
2023-05-14T04:06:59.504Z,101775.78
2023-05-14T04:09:29.004Z,101761.91
2023-05-14T04:11:57.090Z,101736.47
2023-05-14T04:14:24.313Z,101774.31
2023-05-14T04:16:51.427Z,101765.22
2023-05-14T04:19:18.718Z,101781.31
2023-05-14T04:21:46.014Z,101784.03
2023-05-14T04:24:13.044Z,101723.88
2023-05-14T04:26:40.041Z,101783.53
2023-05-14T04:29:07.147Z,101739.00
2023-05-14T04:31:34.247Z,101785.81
2023-05-14T04:34:01.374Z,101796.03
2023-05-14T04:36:28.452Z,101796.63
2023-05-14T04:38:56.134Z,101758.75
2023-05-14T04:41:23.215Z,101799.53
2023-05-14T04:43:51.028Z,101803.19
2023-05-14T04:46:18.215Z,101807.19
2023-05-14T04:48:45.329Z,101760.34
2023-05-14T04:51:12.444Z,101799.09
2023-05-14T04:53:39.443Z,101810.25
2023-05-14T04:56:06.783Z,101818.94
2023-05-14T04:58:35.129Z,101791.09
2023-05-14T05:01:05.104Z,101837.41
2023-05-14T05:03:32.583Z,101814.03
2023-05-14T05:05:59.735Z,101846.16
2023-05-14T05:08:27.020Z,101844.44
2023-05-14T05:10:54.075Z,101822.81
2023-05-14T05:13:21.293Z,101848.63
2023-05-14T05:15:48.415Z,101808.66
2023-05-14T05:18:15.424Z,101854.59
2023-05-14T05:20:42.541Z,101845.44
2023-05-14T05:23:09.718Z,101855.72
2023-05-14T05:25:36.817Z,101807.94
2023-05-14T05:28:04.020Z,101841.06
2023-05-14T05:30:31.540Z,101865.22
2023-05-14T05:32:58.682Z,101770.00
2023-05-14T05:35:25.913Z,101840.31
2023-05-14T05:37:52.974Z,101840.31
2023-05-14T05:40:20.173Z,101852.53
2023-05-14T05:42:47.249Z,101867.66
2023-05-14T05:45:14.514Z,101839.59
2023-05-14T05:47:41.607Z,101798.56
2023-05-14T05:50:09.849Z,101838.88
2023-05-14T05:52:37.175Z,101881.88
2023-05-14T05:55:04.560Z,101768.81
2023-05-14T05:57:31.717Z,101887.13
2023-05-14T05:59:58.773Z,101889.97
2023-05-14T06:02:26.083Z,101891.25
2023-05-14T06:04:53.269Z,101890.41
2023-05-14T06:07:20.393Z,101867.53
2023-05-14T06:09:47.528Z,101894.31
2023-05-14T06:12:14.629Z,101868.09
2023-05-14T06:14:41.764Z,101839.94
2023-05-14T06:17:09.000Z,101858.41
2023-05-14T06:19:36.130Z,101873.38
2023-05-14T06:22:03.295Z,101856.78
2023-05-14T06:24:30.440Z,101846.44
2023-05-14T06:26:57.583Z,101835.41
2023-05-14T06:29:25.563Z,101870.81
2023-05-14T06:31:52.915Z,101831.19
2023-05-14T06:34:20.032Z,101807.81
2023-05-14T06:36:47.349Z,101856.25
2023-05-14T06:39:14.442Z,101863.81
2023-05-14T06:41:41.543Z,101847.63
2023-05-14T06:44:14.381Z,101828.34
2023-05-14T06:46:41.479Z,101858.59
2023-05-14T06:49:08.774Z,101850.81
2023-05-14T06:51:36.053Z,101823.63
2023-05-14T06:54:03.153Z,101764.22
2023-05-14T06:56:30.187Z,101831.56
2023-05-14T06:58:57.297Z,101845.63
2023-05-14T07:01:24.380Z,101809.78
2023-05-14T07:03:51.532Z,101848.16
2023-05-14T07:06:18.795Z,101855.94
2023-05-14T07:08:48.491Z,101863.28
2023-05-14T07:11:16.015Z,101816.56
2023-05-14T07:13:43.349Z,101822.94
2023-05-14T07:16:10.479Z,101849.09
2023-05-14T07:18:37.951Z,101860.88
2023-05-14T07:21:06.619Z,101820.75
2023-05-14T07:23:36.301Z,101859.13
2023-05-14T07:26:04.036Z,101838.00
2023-05-14T07:28:31.241Z,101814.38
2023-05-14T07:30:58.450Z,101806.53
2023-05-14T07:33:25.907Z,101845.19
2023-05-14T07:35:54.236Z,101846.50
2023-05-14T07:38:21.502Z,101866.28
2023-05-14T07:40:48.636Z,101878.31
2023-05-14T07:43:15.774Z,101853.81
2023-05-14T07:45:43.008Z,101875.66
2023-05-14T07:48:10.129Z,101853.63
2023-05-14T07:50:38.241Z,101734.50
2023-05-14T07:53:05.446Z,101834.09
2023-05-14T07:55:32.534Z,101859.16
2023-05-14T07:57:59.630Z,101831.41
2023-05-14T08:00:26.931Z,101838.69
2023-05-14T08:02:55.613Z,101862.59
2023-05-14T08:05:22.821Z,101865.78
2023-05-14T08:07:50.035Z,101841.41
2023-05-14T08:10:17.122Z,101828.59
2023-05-14T08:12:44.269Z,101849.44
2023-05-14T08:15:11.592Z,101762.03
2023-05-14T08:17:38.699Z,101852.69
2023-05-14T08:20:07.078Z,101844.94
2023-05-14T08:22:34.190Z,101790.13
2023-05-14T08:25:03.403Z,101842.41
2023-05-14T08:27:30.929Z,101849.09
2023-05-14T08:29:58.007Z,101833.03
2023-05-14T08:32:25.164Z,101833.34
2023-05-14T08:34:52.514Z,101808.44
2023-05-14T08:37:19.818Z,101821.34
2023-05-14T08:39:47.106Z,101831.53
2023-05-14T08:42:20.879Z,101822.63
2023-05-14T08:45:00.558Z,101796.91
2023-05-14T08:47:30.763Z,101790.38
2023-05-14T08:50:04.648Z,101817.75
2023-05-14T08:52:32.370Z,101752.25
2023-05-14T08:55:02.918Z,101765.34
2023-05-14T08:57:34.527Z,101719.84
2023-05-14T09:00:08.332Z,101790.47
2023-05-14T09:02:36.891Z,101755.50
2023-05-14T09:05:04.342Z,101713.41
2023-05-14T09:07:31.801Z,101756.50
2023-05-14T09:09:59.576Z,101753.94
2023-05-14T09:12:26.786Z,101745.69
2023-05-14T09:14:53.955Z,101655.75
2023-05-14T09:17:21.627Z,101780.31
2023-05-14T09:19:53.303Z,101769.03
2023-05-14T09:22:21.042Z,101767.59
2023-05-14T09:25:03.649Z,101767.63
2023-05-14T09:27:33.656Z,101795.44
2023-05-14T09:30:11.266Z,101804.00
2023-05-14T09:32:46.525Z,101807.38
2023-05-14T09:35:19.336Z,101776.53
2023-05-14T09:37:48.947Z,101787.50
2023-05-14T09:40:17.480Z,101760.16
2023-05-14T09:42:44.896Z,101760.63
2023-05-14T09:45:12.230Z,101779.72
2023-05-14T09:47:39.974Z,101783.34
2023-05-14T09:50:08.442Z,101776.19
2023-05-14T09:52:35.970Z,101740.56
2023-05-14T09:55:03.104Z,101771.25
2023-05-14T09:57:30.257Z,101759.66
2023-05-14T09:59:57.356Z,101761.88
2023-05-14T10:02:26.629Z,101733.41
2023-05-14T10:04:55.025Z,101745.94
2023-05-14T10:07:26.668Z,101733.50
2023-05-14T10:10:01.846Z,101730.50
2023-05-14T10:12:37.181Z,101717.31
2023-05-14T10:15:11.252Z,101725.91
2023-05-14T10:17:41.500Z,101703.63
2023-05-14T10:20:12.501Z,101700.88
2023-05-14T10:22:39.923Z,101699.38
2023-05-14T10:25:08.519Z,101699.66
2023-05-14T10:27:36.912Z,101680.94
2023-05-14T10:30:11.827Z,101689.16
2023-05-14T10:32:39.339Z,101694.53
2023-05-14T10:35:22.303Z,101679.63
2023-05-14T10:37:51.880Z,101685.16
2023-05-14T10:40:19.597Z,101691.50
2023-05-14T10:42:47.349Z,101698.03
2023-05-14T10:45:15.788Z,101576.09
2023-05-14T10:47:45.989Z,101636.03
2023-05-14T10:50:16.263Z,101694.88
2023-05-14T10:52:44.866Z,101674.31
2023-05-14T10:55:16.964Z,101669.19
2023-05-14T10:57:45.823Z,101657.38
2023-05-14T11:00:14.850Z,101670.81
2023-05-14T11:02:43.930Z,101673.34
2023-05-14T11:05:17.283Z,101647.09
2023-05-14T11:07:47.815Z,101691.88
2023-05-14T11:10:17.201Z,101690.22
2023-05-14T11:12:49.012Z,101675.84
2023-05-14T11:15:27.008Z,101687.63
2023-05-14T11:17:54.923Z,101678.38
2023-05-14T11:20:22.364Z,101678.38
2023-05-14T11:22:51.750Z,101665.28
2023-05-14T11:25:19.060Z,101606.81
2023-05-14T11:27:47.637Z,101618.69
2023-05-14T11:30:19.553Z,101625.34
2023-05-14T11:32:49.660Z,101526.06
2023-05-14T11:35:18.112Z,101651.97
2023-05-14T11:37:52.599Z,101644.19
2023-05-14T11:40:20.212Z,101634.59
2023-05-14T11:42:47.322Z,101648.03
2023-05-14T11:45:26.594Z,101633.75
2023-05-14T11:47:54.951Z,101588.91
2023-05-14T11:50:23.304Z,101636.09
2023-05-14T11:52:51.158Z,101634.59
2023-05-14T11:55:18.525Z,101627.34
2023-05-14T11:57:45.923Z,101575.75
2023-05-14T12:00:14.686Z,101598.84
2023-05-14T12:02:41.950Z,101589.84
2023-05-14T12:05:12.735Z,101599.16
2023-05-14T12:07:40.068Z,101588.25
2023-05-14T12:10:08.087Z,101563.91
2023-05-14T12:12:37.307Z,101592.59
2023-05-14T12:15:12.360Z,101561.72
2023-05-14T12:17:40.030Z,101547.88
2023-05-14T12:20:12.477Z,101580.72
2023-05-14T12:22:42.639Z,101588.94
2023-05-14T12:25:13.847Z,101565.97
2023-05-14T12:27:41.621Z,101556.13
2023-05-14T12:32:41.206Z,101554.38
2023-05-14T12:35:09.137Z,101562.16
2023-05-14T12:37:37.572Z,101557.16
2023-05-14T12:40:09.788Z,101562.66
2023-05-14T12:42:37.064Z,101569.22
2023-05-14T12:45:07.478Z,101561.78
2023-05-14T12:47:35.405Z,101533.16
2023-05-14T12:50:02.683Z,101493.78
2023-05-14T12:55:00.206Z,101532.91
2023-05-14T12:57:28.384Z,101474.88
2023-05-14T12:59:55.746Z,101508.31
2023-05-14T13:02:23.063Z,101497.16
2023-05-14T13:04:50.143Z,101511.66
2023-05-14T13:07:17.186Z,101514.06
2023-05-14T13:09:44.559Z,101462.13
2023-05-14T13:12:11.788Z,101460.13
2023-05-14T13:14:38.823Z,101473.97
2023-05-14T13:17:08.115Z,101442.75
2023-05-14T13:19:35.429Z,101474.53
2023-05-14T13:22:02.635Z,101477.31
2023-05-14T13:24:29.760Z,101476.63
2023-05-14T13:26:56.853Z,101465.25
2023-05-14T13:29:24.745Z,101479.50
2023-05-14T13:31:51.923Z,101388.88
2023-05-14T13:34:19.202Z,101470.97
2023-05-14T13:36:47.325Z,101436.13
2023-05-14T13:39:14.691Z,101460.25
2023-05-14T13:41:41.988Z,101445.66
2023-05-14T13:44:09.079Z,101445.25
2023-05-14T13:46:36.322Z,101429.63
2023-05-14T13:49:03.523Z,101436.34
2023-05-14T13:51:31.417Z,101393.41
2023-05-14T13:53:58.424Z,101450.44
2023-05-14T13:56:26.022Z,101417.25
2023-05-14T13:58:53.278Z,101414.50
2023-05-14T14:01:20.546Z,101443.38
2023-05-14T14:03:47.820Z,101439.41
2023-05-14T14:06:14.981Z,101469.59
2023-05-14T14:08:42.173Z,101442.84
2023-05-14T14:11:09.498Z,101452.16
2023-05-14T14:13:37.181Z,101450.09
2023-05-14T14:16:04.577Z,101442.91
2023-05-14T14:18:31.698Z,101426.41
2023-05-14T14:20:58.827Z,101446.91
2023-05-14T14:23:26.042Z,101466.41
2023-05-14T14:25:53.078Z,101460.69
2023-05-14T14:28:20.156Z,101480.19
2023-05-14T14:30:47.283Z,101462.31
2023-05-14T14:33:14.945Z,101460.16
2023-05-14T14:35:42.121Z,101408.31
2023-05-14T14:38:09.505Z,101453.41
2023-05-14T14:40:36.518Z,101461.03
2023-05-14T14:43:03.633Z,101426.41
2023-05-14T14:45:30.966Z,101458.69
2023-05-14T14:48:23.076Z,101454.50
2023-05-14T14:50:50.520Z,101451.59
2023-05-14T14:53:22.072Z,101446.28
2023-05-14T14:55:50.052Z,101422.44
2023-05-14T14:58:18.865Z,101411.97
2023-05-14T15:00:46.221Z,101439.66
2023-05-14T15:03:15.051Z,101437.50
2023-05-14T15:05:42.878Z,101434.41
2023-05-14T15:08:10.506Z,101426.81
2023-05-14T15:10:38.541Z,101432.88
2023-05-14T15:13:06.736Z,101439.06
2023-05-14T15:15:35.087Z,101443.53
2023-05-14T15:18:02.884Z,101438.78
2023-05-14T15:20:30.233Z,101440.63
2023-05-14T15:22:57.347Z,101435.09
2023-05-14T15:25:25.554Z,101448.91
2023-05-14T15:27:52.798Z,101399.78
2023-05-14T15:30:20.339Z,101397.66
2023-05-14T15:32:47.380Z,101444.59
2023-05-14T15:35:14.653Z,101442.69
2023-05-14T15:37:44.024Z,101375.97
2023-05-14T15:40:12.100Z,101419.50
2023-05-14T15:42:43.912Z,101429.16
2023-05-14T15:45:13.170Z,101430.34
2023-05-14T15:47:45.072Z,101407.03
2023-05-14T15:50:12.367Z,101413.25
2023-05-14T15:52:40.142Z,101407.03
2023-05-14T15:55:08.039Z,101383.13
2023-05-14T15:57:35.249Z,101409.50
2023-05-14T16:00:10.041Z,101372.84
2023-05-14T16:02:39.371Z,101399.22
2023-05-14T16:05:08.129Z,101397.44
2023-05-14T16:07:36.191Z,101383.91
2023-05-14T16:10:03.739Z,101384.00
2023-05-14T16:12:31.031Z,101399.34
2023-05-14T16:14:58.517Z,101392.31
2023-05-14T16:17:28.104Z,101373.59
2023-05-14T16:19:56.442Z,101380.34
2023-05-14T16:22:23.791Z,101377.19
2023-05-14T16:24:51.061Z,101386.28
2023-05-14T16:27:19.275Z,101360.19
2023-05-14T16:29:46.563Z,101388.47
2023-05-14T16:32:13.808Z,101384.41
2023-05-14T16:34:41.094Z,101394.19
2023-05-14T16:37:08.724Z,101392.91
2023-05-14T16:39:36.299Z,101380.84
2023-05-14T16:42:03.713Z,101405.25
2023-05-14T16:44:30.999Z,101381.81
2023-05-14T16:46:58.182Z,101394.00
2023-05-14T16:49:25.505Z,101385.28
2023-05-14T16:51:52.730Z,101390.72
2023-05-14T16:54:20.010Z,101386.66
2023-05-14T16:56:48.299Z,101374.78
2023-05-14T16:59:16.114Z,101380.50
2023-05-14T17:01:44.301Z,101343.28
2023-05-14T17:04:11.519Z,101389.63
2023-05-14T17:06:38.687Z,101358.63
2023-05-14T17:09:06.977Z,101365.69
2023-05-14T17:11:34.146Z,101384.28
2023-05-14T17:14:01.346Z,101371.25
2023-05-14T17:16:28.834Z,101367.88
2023-05-14T17:18:56.021Z,101366.00
2023-05-14T17:21:23.225Z,101358.78
2023-05-14T17:23:50.561Z,101374.91
2023-05-14T17:26:17.656Z,101360.88
2023-05-14T17:28:44.769Z,101380.13
2023-05-14T17:31:11.877Z,101368.44
2023-05-14T17:33:39.245Z,101287.78
2023-05-14T17:36:06.789Z,101399.88
2023-05-14T17:38:34.752Z,101376.53
2023-05-14T17:41:02.154Z,101355.56
2023-05-14T17:43:29.797Z,101389.41
2023-05-14T17:45:57.074Z,101395.59
2023-05-14T17:48:24.617Z,101384.88
2023-05-14T17:50:52.069Z,101396.13
2023-05-14T17:53:19.457Z,101364.78
2023-05-14T17:55:46.604Z,101346.50
2023-05-14T17:58:15.537Z,101354.84
2023-05-14T18:00:43.504Z,101359.75
2023-05-14T18:03:11.764Z,101343.56
2023-05-14T18:05:39.270Z,101359.25
2023-05-14T18:08:06.495Z,101363.03
2023-05-14T18:10:33.862Z,101367.25
2023-05-14T18:13:01.036Z,101372.31
2023-05-14T18:15:28.280Z,101362.72
2023-05-14T18:17:55.392Z,101362.84
2023-05-14T18:20:22.636Z,101364.69
2023-05-14T18:22:50.824Z,101366.56
2023-05-14T18:25:18.114Z,101371.47
2023-05-14T18:27:45.745Z,101359.47
2023-05-14T18:30:14.716Z,101334.53
2023-05-14T18:32:43.972Z,101331.66
2023-05-14T18:35:12.642Z,101351.00
2023-05-14T18:37:41.119Z,101341.00
2023-05-14T18:40:09.106Z,101363.47
2023-05-14T18:42:36.375Z,101379.16
2023-05-14T18:45:04.333Z,101381.38
2023-05-14T18:47:34.534Z,101380.66
2023-05-14T18:50:02.270Z,101376.53
2023-05-14T18:52:29.590Z,101361.09
2023-05-14T18:54:57.107Z,101369.63
2023-05-14T18:57:25.914Z,101368.31
2023-05-14T18:59:53.079Z,101349.34
2023-05-14T19:02:20.255Z,101277.53
2023-05-14T19:04:52.678Z,101343.59
2023-05-14T19:07:21.072Z,101369.06
2023-05-14T19:09:48.438Z,101370.13
2023-05-14T19:12:15.582Z,101355.19
2023-05-14T19:14:42.705Z,101368.44
2023-05-14T19:17:09.998Z,101359.72
2023-05-14T19:19:37.932Z,101351.84
2023-05-14T19:22:05.751Z,101296.69
2023-05-14T19:24:34.519Z,101355.91
2023-05-14T19:27:01.996Z,101341.28
2023-05-14T19:29:29.191Z,101305.72
2023-05-14T19:31:56.549Z,101295.38
2023-05-14T19:34:23.947Z,101323.63
2023-05-14T19:36:51.050Z,101331.13
2023-05-14T19:39:18.103Z,101299.91
2023-05-14T19:41:45.300Z,101316.91
2023-05-14T19:44:12.528Z,101305.81
2023-05-14T19:46:39.877Z,101305.31
2023-05-14T19:49:07.083Z,101301.19
2023-05-14T19:51:34.160Z,101299.13
2023-05-14T19:54:01.337Z,101294.47
2023-05-14T19:56:28.529Z,101288.44
2023-05-14T19:58:55.655Z,101280.47
2023-05-14T20:01:22.709Z,101272.19
2023-05-14T20:03:49.851Z,101275.03
2023-05-14T20:06:17.633Z,101287.47
2023-05-14T20:08:47.687Z,101261.53
2023-05-14T20:11:15.829Z,101277.38
2023-05-14T20:13:44.242Z,101254.41
2023-05-14T20:16:11.530Z,101280.78
2023-05-14T20:18:38.561Z,101304.59
2023-05-14T20:21:05.716Z,101188.78
2023-05-14T20:23:33.663Z,101302.34
2023-05-14T20:26:02.478Z,101256.56
2023-05-14T20:28:29.959Z,101289.41
2023-05-14T20:30:59.036Z,101242.97
2023-05-14T20:33:27.221Z,101242.97
2023-05-14T20:35:54.127Z,101265.34
2023-05-14T20:38:21.873Z,101271.66
2023-05-14T20:40:49.131Z,101259.09
2023-05-14T20:43:16.431Z,101254.28
2023-05-14T20:45:43.650Z,101259.03
2023-05-14T20:48:12.896Z,101261.41
2023-05-14T20:50:40.062Z,101221.69
2023-05-14T20:53:07.280Z,101253.69
2023-05-14T20:55:34.486Z,101232.13
2023-05-14T20:58:01.740Z,101274.44
2023-05-14T21:00:28.819Z,101279.56
2023-05-14T21:02:57.140Z,101286.19
2023-05-14T21:05:24.528Z,101279.09
2023-05-14T21:07:51.908Z,101270.06
2023-05-14T21:10:19.052Z,101259.09
2023-05-14T21:12:46.108Z,101264.84
2023-05-14T21:15:13.190Z,101243.38
2023-05-14T21:17:40.278Z,101267.69
2023-05-14T21:20:08.049Z,101256.78
2023-05-14T21:22:35.145Z,101270.38
2023-05-14T21:25:02.343Z,101277.78
2023-05-14T21:27:29.349Z,101246.09
2023-05-14T21:29:56.375Z,101273.03
2023-05-14T21:32:24.034Z,101281.69
2023-05-14T21:34:51.079Z,101260.44
2023-05-14T21:37:18.165Z,101252.94
2023-05-14T21:39:45.440Z,101240.84
2023-05-14T21:42:12.525Z,101220.63
2023-05-14T21:44:39.681Z,101156.81
2023-05-14T21:47:07.165Z,101214.13
2023-05-14T21:49:34.185Z,101169.06
2023-05-14T21:52:01.298Z,101191.09
2023-05-14T21:54:28.429Z,101210.56
2023-05-14T21:56:55.639Z,101218.66
2023-05-14T21:59:22.789Z,101218.16
2023-05-14T22:02:06.281Z,101229.00
2023-05-14T22:04:34.349Z,101227.44
2023-05-14T22:07:01.672Z,101218.88
2023-05-14T22:09:29.069Z,101219.75
2023-05-14T22:11:57.443Z,101195.75
2023-05-14T22:14:26.523Z,101188.94
2023-05-14T22:16:53.851Z,101156.38
2023-05-14T22:19:21.286Z,101072.38
2023-05-14T22:21:48.357Z,101147.28
2023-05-14T22:24:15.362Z,101143.16
2023-05-14T22:26:42.485Z,101156.50
2023-05-14T22:29:09.505Z,101147.31
2023-05-14T22:31:36.576Z,101141.19
2023-05-14T22:34:03.606Z,101168.03
2023-05-14T22:36:30.675Z,101176.81
2023-05-14T22:38:57.650Z,101181.72
2023-05-14T22:41:24.681Z,101183.44
2023-05-14T22:43:51.832Z,101115.50
2023-05-14T22:46:19.080Z,101192.50
2023-05-14T22:48:49.178Z,101196.53
2023-05-14T22:51:16.686Z,101167.75
2023-05-14T22:53:43.951Z,101194.50
2023-05-14T22:56:11.038Z,101202.59
2023-05-14T22:58:38.231Z,101220.59
2023-05-14T23:01:05.386Z,101198.81
2023-05-14T23:03:32.485Z,101233.00
2023-05-14T23:05:59.573Z,101226.13
2023-05-14T23:08:26.622Z,101222.41
2023-05-14T23:10:53.999Z,101178.66
2023-05-14T23:13:21.235Z,101177.44
2023-05-14T23:15:48.870Z,101115.16
2023-05-14T23:18:15.991Z,101142.81
2023-05-14T23:20:43.467Z,101150.63
2023-05-14T23:23:11.178Z,101139.78
2023-05-14T23:25:38.246Z,101124.09
2023-05-14T23:28:05.412Z,101132.47
2023-05-14T23:30:32.482Z,101164.34
2023-05-14T23:32:59.628Z,101166.16
2023-05-14T23:35:27.112Z,101186.47
2023-05-14T23:37:55.493Z,101171.09
2023-05-14T23:40:22.646Z,101156.59
2023-05-14T23:42:49.737Z,101170.72
2023-05-14T23:45:16.877Z,101131.09
2023-05-14T23:47:44.100Z,101141.16
2023-05-14T23:50:11.291Z,101135.22
2023-05-14T23:52:38.229Z,101126.94
2023-05-14T23:55:05.724Z,101128.34
2023-05-14T23:57:32.772Z,101125.56
2023-05-14T23:59:59.842Z,101106.41
